sensor_id;sensor_type;location;lat;lon;timestamp;pressure;altitude;pressure_sealevel;temperature;humidity
13312;BME280;34033;48.672;9.376;2022-08-21T00:01:56;98646.13;;;18.56;82.05
13312;BME280;34033;48.672;9.376;2022-08-21T00:04:22;98646.13;;;18.56;82.04
13312;BME280;34033;48.672;9.376;2022-08-21T00:06:49;98649.59;;;18.63;81.67
13312;BME280;34033;48.672;9.376;2022-08-21T00:09:14;98641.53;;;18.62;81.69
13312;BME280;34033;48.672;9.376;2022-08-21T00:11:40;98643.56;;;18.61;81.35
13312;BME280;34033;48.672;9.376;2022-08-21T00:14:08;98633.09;;;18.58;81.35
13312;BME280;34033;48.672;9.376;2022-08-21T00:16:33;98646.94;;;18.53;81.22
13312;BME280;34033;48.672;9.376;2022-08-21T00:18:59;98642.09;;;18.53;81.22
13312;BME280;34033;48.672;9.376;2022-08-21T00:21:25;98648.94;;;18.56;81.04
13312;BME280;34033;48.672;9.376;2022-08-21T00:23:51;98636.09;;;18.51;81.12
13312;BME280;34033;48.672;9.376;2022-08-21T00:26:16;98640.66;;;18.45;81.40
13312;BME280;34033;48.672;9.376;2022-08-21T00:28:41;98634.22;;;18.45;81.48
13312;BME280;34033;48.672;9.376;2022-08-21T00:31:07;98635.34;;;18.47;81.35
13312;BME280;34033;48.672;9.376;2022-08-21T00:33:33;98627.31;;;18.46;81.19
13312;BME280;34033;48.672;9.376;2022-08-21T00:35:59;98632.50;;;18.47;81.16
13312;BME280;34033;48.672;9.376;2022-08-21T00:38:24;98636.31;;;18.41;80.84
13312;BME280;34033;48.672;9.376;2022-08-21T00:40:56;98634.72;;;18.40;81.13
13312;BME280;34033;48.672;9.376;2022-08-21T00:43:26;98634.38;;;18.54;82.09
13312;BME280;34033;48.672;9.376;2022-08-21T00:45:53;98634.63;;;18.43;81.45
13312;BME280;34033;48.672;9.376;2022-08-21T00:48:19;98635.16;;;18.38;81.15
13312;BME280;34033;48.672;9.376;2022-08-21T00:53:29;98629.72;;;18.27;81.30
13312;BME280;34033;48.672;9.376;2022-08-21T00:55:58;98626.00;;;18.30;81.39
13312;BME280;34033;48.672;9.376;2022-08-21T00:58:26;98634.00;;;18.36;81.14
13312;BME280;34033;48.672;9.376;2022-08-21T01:00:52;98630.00;;;18.33;81.11
13312;BME280;34033;48.672;9.376;2022-08-21T01:03:21;98618.41;;;18.27;80.69
13312;BME280;34033;48.672;9.376;2022-08-21T01:05:47;98624.06;;;18.27;80.53
13312;BME280;34033;48.672;9.376;2022-08-21T01:08:15;98634.22;;;18.25;80.46
13312;BME280;34033;48.672;9.376;2022-08-21T01:10:41;98638.75;;;18.22;80.70
13312;BME280;34033;48.672;9.376;2022-08-21T01:13:08;98625.03;;;18.21;80.67
13312;BME280;34033;48.672;9.376;2022-08-21T01:15:38;98632.00;;;18.16;80.65
13312;BME280;34033;48.672;9.376;2022-08-21T01:18:07;98629.69;;;18.11;80.97
13312;BME280;34033;48.672;9.376;2022-08-21T01:20:35;98625.41;;;18.03;80.56
13312;BME280;34033;48.672;9.376;2022-08-21T01:23:05;98626.41;;;17.93;81.43
13312;BME280;34033;48.672;9.376;2022-08-21T01:25:31;98626.22;;;17.84;81.98
13312;BME280;34033;48.672;9.376;2022-08-21T01:27:59;98618.28;;;17.75;82.28
13312;BME280;34033;48.672;9.376;2022-08-21T01:30:27;98628.03;;;17.74;82.35
13312;BME280;34033;48.672;9.376;2022-08-21T01:32:53;98627.94;;;17.78;82.27
13312;BME280;34033;48.672;9.376;2022-08-21T01:35:20;98620.56;;;17.84;82.11
13312;BME280;34033;48.672;9.376;2022-08-21T01:37:46;98629.31;;;17.89;81.91
13312;BME280;34033;48.672;9.376;2022-08-21T01:40:13;98620.34;;;17.95;81.39
13312;BME280;34033;48.672;9.376;2022-08-21T01:42:39;98615.47;;;17.95;80.83
13312;BME280;34033;48.672;9.376;2022-08-21T01:45:06;98618.72;;;17.93;80.98
13312;BME280;34033;48.672;9.376;2022-08-21T01:47:31;98616.78;;;17.90;80.87
13312;BME280;34033;48.672;9.376;2022-08-21T01:49:58;98618.00;;;17.89;80.83
13312;BME280;34033;48.672;9.376;2022-08-21T01:52:23;98618.81;;;17.90;81.00
13312;BME280;34033;48.672;9.376;2022-08-21T01:54:49;98628.72;;;17.98;80.80
13312;BME280;34033;48.672;9.376;2022-08-21T01:57:14;98623.88;;;17.99;80.19
13312;BME280;34033;48.672;9.376;2022-08-21T01:59:40;98620.34;;;17.95;80.36
13312;BME280;34033;48.672;9.376;2022-08-21T02:02:06;98615.91;;;17.93;80.08
13312;BME280;34033;48.672;9.376;2022-08-21T02:04:32;98611.41;;;17.96;79.68
13312;BME280;34033;48.672;9.376;2022-08-21T02:06:58;98604.69;;;17.90;79.85
13312;BME280;34033;48.672;9.376;2022-08-21T02:09:24;98614.09;;;17.83;80.36
13312;BME280;34033;48.672;9.376;2022-08-21T02:11:50;98607.84;;;17.72;80.62
13312;BME280;34033;48.672;9.376;2022-08-21T02:14:16;98615.97;;;17.70;80.87
13312;BME280;34033;48.672;9.376;2022-08-21T02:16:43;98607.84;;;17.72;80.84
13312;BME280;34033;48.672;9.376;2022-08-21T02:19:09;98603.28;;;17.78;80.49
13312;BME280;34033;48.672;9.376;2022-08-21T02:21:35;98602.78;;;17.83;79.86
13312;BME280;34033;48.672;9.376;2022-08-21T02:24:01;98610.03;;;17.84;79.91
13312;BME280;34033;48.672;9.376;2022-08-21T02:26:26;98607.44;;;17.74;80.34
13312;BME280;34033;48.672;9.376;2022-08-21T02:28:52;98605.41;;;17.74;80.37
13312;BME280;34033;48.672;9.376;2022-08-21T02:31:18;98598.06;;;17.77;79.93
13312;BME280;34033;48.672;9.376;2022-08-21T02:33:43;98600.84;;;17.80;79.57
13312;BME280;34033;48.672;9.376;2022-08-21T02:36:10;98596.31;;;17.83;79.70
13312;BME280;34033;48.672;9.376;2022-08-21T02:38:38;98597.94;;;17.84;79.53
13312;BME280;34033;48.672;9.376;2022-08-21T02:41:13;98603.16;;;17.85;79.19
13312;BME280;34033;48.672;9.376;2022-08-21T02:43:38;98593.50;;;17.83;78.87
13312;BME280;34033;48.672;9.376;2022-08-21T02:46:05;98602.34;;;17.85;78.73
13312;BME280;34033;48.672;9.376;2022-08-21T02:48:32;98593.50;;;17.83;78.44
13312;BME280;34033;48.672;9.376;2022-08-21T02:51:01;98600.47;;;17.78;78.52
13312;BME280;34033;48.672;9.376;2022-08-21T02:53:28;98600.47;;;17.78;78.67
13312;BME280;34033;48.672;9.376;2022-08-21T02:55:55;98605.75;;;17.76;78.75
13312;BME280;34033;48.672;9.376;2022-08-21T02:58:25;98600.59;;;17.71;78.26
13312;BME280;34033;48.672;9.376;2022-08-21T03:00:51;98610.56;;;17.56;79.10
13312;BME280;34033;48.672;9.376;2022-08-21T03:03:17;98607.81;;;17.52;78.80
13312;BME280;34033;48.672;9.376;2022-08-21T03:05:43;98611.06;;;17.51;79.01
13312;BME280;34033;48.672;9.376;2022-08-21T03:08:11;98603.75;;;17.53;78.59
13312;BME280;34033;48.672;9.376;2022-08-21T03:10:39;98606.94;;;17.56;78.68
13312;BME280;34033;48.672;9.376;2022-08-21T03:13:05;98607.38;;;17.54;78.88
13312;BME280;34033;48.672;9.376;2022-08-21T03:15:31;98605.94;;;17.46;78.60
13312;BME280;34033;48.672;9.376;2022-08-21T03:17:57;98600.03;;;17.37;78.74
13312;BME280;34033;48.672;9.376;2022-08-21T03:20:27;98593.34;;;17.27;79.20
13312;BME280;34033;48.672;9.376;2022-08-21T03:22:54;98600.38;;;17.19;79.27
13312;BME280;34033;48.672;9.376;2022-08-21T03:25:24;98610.00;;;17.22;79.18
13312;BME280;34033;48.672;9.376;2022-08-21T03:27:49;98609.16;;;17.25;79.44
13312;BME280;34033;48.672;9.376;2022-08-21T03:30:16;98618.53;;;17.18;79.92
13312;BME280;34033;48.672;9.376;2022-08-21T03:32:41;98615.84;;;17.11;80.18
13312;BME280;34033;48.672;9.376;2022-08-21T03:35:07;98607.38;;;17.11;80.02
13312;BME280;34033;48.672;9.376;2022-08-21T03:37:33;98610.59;;;17.09;79.97
13312;BME280;34033;48.672;9.376;2022-08-21T03:39:59;98605.25;;;17.15;80.19
13312;BME280;34033;48.672;9.376;2022-08-21T03:42:24;98603.50;;;17.25;79.62
13312;BME280;34033;48.672;9.376;2022-08-21T03:44:50;98609.94;;;17.25;79.41
13312;BME280;34033;48.672;9.376;2022-08-21T03:47:15;98606.31;;;17.25;79.13
13312;BME280;34033;48.672;9.376;2022-08-21T03:49:41;98615.22;;;17.23;78.94
13312;BME280;34033;48.672;9.376;2022-08-21T03:52:06;98603.13;;;17.23;79.47
13312;BME280;34033;48.672;9.376;2022-08-21T03:54:32;98615.16;;;17.27;78.72
13312;BME280;34033;48.672;9.376;2022-08-21T03:56:58;98624.50;;;17.24;78.71
13312;BME280;34033;48.672;9.376;2022-08-21T03:59:23;98616.94;;;17.17;78.73
13312;BME280;34033;48.672;9.376;2022-08-21T04:04:18;98612.16;;;17.14;79.13
13312;BME280;34033;48.672;9.376;2022-08-21T04:06:43;98621.13;;;17.09;79.22
13312;BME280;34033;48.672;9.376;2022-08-21T04:09:09;98621.47;;;17.11;79.59
13312;BME280;34033;48.672;9.376;2022-08-21T04:11:34;98619.38;;;17.15;78.82
13312;BME280;34033;48.672;9.376;2022-08-21T04:14:00;98625.84;;;17.16;78.76
13312;BME280;34033;48.672;9.376;2022-08-21T04:16:25;98624.69;;;17.13;78.01
13312;BME280;34033;48.672;9.376;2022-08-21T04:18:50;98626.78;;;17.09;78.11
13312;BME280;34033;48.672;9.376;2022-08-21T04:21:16;98629.59;;;17.09;78.04
13312;BME280;34033;48.672;9.376;2022-08-21T04:23:41;98634.06;;;17.06;78.38
13312;BME280;34033;48.672;9.376;2022-08-21T04:26:06;98637.28;;;17.08;78.52
13312;BME280;34033;48.672;9.376;2022-08-21T04:28:32;98644.56;;;17.06;78.55
13312;BME280;34033;48.672;9.376;2022-08-21T04:30:57;98639.72;;;17.06;78.66
13312;BME280;34033;48.672;9.376;2022-08-21T04:33:23;98652.81;;;16.97;78.85
13312;BME280;34033;48.672;9.376;2022-08-21T04:35:49;98652.00;;;16.96;78.33
13312;BME280;34033;48.672;9.376;2022-08-21T04:38:15;98645.13;;;16.97;78.54
13312;BME280;34033;48.672;9.376;2022-08-21T04:40:41;98649.50;;;17.02;78.36
13312;BME280;34033;48.672;9.376;2022-08-21T04:43:09;98655.88;;;17.06;78.19
13312;BME280;34033;48.672;9.376;2022-08-21T04:45:35;98657.84;;;17.09;78.32
13312;BME280;34033;48.672;9.376;2022-08-21T04:48:03;98655.75;;;17.13;78.17
13312;BME280;34033;48.672;9.376;2022-08-21T04:53:18;98668.69;;;17.10;78.03
13312;BME280;34033;48.672;9.376;2022-08-21T04:55:46;98669.63;;;17.04;77.87
13312;BME280;34033;48.672;9.376;2022-08-21T04:58:14;98666.84;;;17.00;77.98
13312;BME280;34033;48.672;9.376;2022-08-21T05:00:43;98666.53;;;16.95;78.61
13312;BME280;34033;48.672;9.376;2022-08-21T05:03:09;98668.53;;;16.98;78.29
13312;BME280;34033;48.672;9.376;2022-08-21T05:05:36;98668.06;;;16.99;78.38
13312;BME280;34033;48.672;9.376;2022-08-21T05:08:03;98662.38;;;17.03;78.24
13312;BME280;34033;48.672;9.376;2022-08-21T05:10:29;98668.84;;;17.03;78.23
13312;BME280;34033;48.672;9.376;2022-08-21T05:12:56;98671.28;;;17.01;78.19
13312;BME280;34033;48.672;9.376;2022-08-21T05:15:22;98663.13;;;17.07;78.11
13312;BME280;34033;48.672;9.376;2022-08-21T05:17:48;98675.53;;;17.13;77.91
13312;BME280;34033;48.672;9.376;2022-08-21T05:20:15;98669.41;;;17.18;77.59
13312;BME280;34033;48.672;9.376;2022-08-21T05:22:40;98670.13;;;17.22;77.50
13312;BME280;34033;48.672;9.376;2022-08-21T05:25:07;98679.47;;;17.19;77.96
13312;BME280;34033;48.672;9.376;2022-08-21T05:27:32;98679.81;;;17.21;77.79
13312;BME280;34033;48.672;9.376;2022-08-21T05:29:58;98679.09;;;17.17;78.40
13312;BME280;34033;48.672;9.376;2022-08-21T05:32:23;98676.34;;;17.14;78.17
13312;BME280;34033;48.672;9.376;2022-08-21T05:34:49;98688.06;;;17.12;78.23
13312;BME280;34033;48.672;9.376;2022-08-21T05:37:14;98690.47;;;17.14;78.67
13312;BME280;34033;48.672;9.376;2022-08-21T05:39:40;98685.63;;;17.14;78.82
13312;BME280;34033;48.672;9.376;2022-08-21T05:42:06;98684.44;;;17.12;79.09
13312;BME280;34033;48.672;9.376;2022-08-21T05:44:32;98686.38;;;17.15;79.33
13312;BME280;34033;48.672;9.376;2022-08-21T05:47:08;98684.25;;;17.22;78.85
13312;BME280;34033;48.672;9.376;2022-08-21T05:49:35;98688.19;;;17.28;78.88
13312;BME280;34033;48.672;9.376;2022-08-21T05:52:00;98688.59;;;17.27;78.70
13312;BME280;34033;48.672;9.376;2022-08-21T05:54:26;98686.97;;;17.29;78.68
13312;BME280;34033;48.672;9.376;2022-08-21T05:56:52;98687.69;;;17.33;78.59
13312;BME280;34033;48.672;9.376;2022-08-21T05:59:17;98688.44;;;17.37;78.53
13312;BME280;34033;48.672;9.376;2022-08-21T06:01:43;98679.94;;;17.37;78.90
13312;BME280;34033;48.672;9.376;2022-08-21T06:04:10;98689.09;;;17.45;78.25
13312;BME280;34033;48.672;9.376;2022-08-21T06:06:36;98689.78;;;17.52;78.28
13312;BME280;34033;48.672;9.376;2022-08-21T06:09:02;98681.66;;;17.55;78.18
13312;BME280;34033;48.672;9.376;2022-08-21T06:11:27;98681.63;;;17.58;77.85
13312;BME280;34033;48.672;9.376;2022-08-21T06:13:53;98680.38;;;17.59;78.18
13312;BME280;34033;48.672;9.376;2022-08-21T06:16:18;98687.22;;;17.62;77.84
13312;BME280;34033;48.672;9.376;2022-08-21T06:18:44;98678.31;;;17.63;77.91
13312;BME280;34033;48.672;9.376;2022-08-21T06:21:11;98681.50;;;17.65;77.96
13312;BME280;34033;48.672;9.376;2022-08-21T06:23:37;98690.66;;;17.73;78.43
13312;BME280;34033;48.672;9.376;2022-08-21T06:26:04;98684.56;;;17.74;78.31
13312;BME280;34033;48.672;9.376;2022-08-21T06:28:31;98680.06;;;17.77;78.37
13312;BME280;34033;48.672;9.376;2022-08-21T06:30:57;98678.47;;;17.76;78.45
13312;BME280;34033;48.672;9.376;2022-08-21T06:33:22;98671.47;;;17.84;78.21
13312;BME280;34033;48.672;9.376;2022-08-21T06:35:48;98673.78;;;17.89;77.60
13312;BME280;34033;48.672;9.376;2022-08-21T06:38:14;98676.22;;;17.87;77.19
13312;BME280;34033;48.672;9.376;2022-08-21T06:40:40;98676.59;;;17.89;77.94
13312;BME280;34033;48.672;9.376;2022-08-21T06:43:13;98668.13;;;17.89;77.19
13312;BME280;34033;48.672;9.376;2022-08-21T06:45:39;98669.19;;;17.75;77.77
13312;BME280;34033;48.672;9.376;2022-08-21T06:48:05;98674.78;;;17.79;78.38
13312;BME280;34033;48.672;9.376;2022-08-21T06:50:32;98669.06;;;17.82;78.75
13312;BME280;34033;48.672;9.376;2022-08-21T06:53:07;98673.06;;;17.85;78.33
13312;BME280;34033;48.672;9.376;2022-08-21T06:55:33;98668.19;;;17.85;78.43
13312;BME280;34033;48.672;9.376;2022-08-21T06:57:59;98676.09;;;17.94;78.62
13312;BME280;34033;48.672;9.376;2022-08-21T07:00:25;98673.44;;;18.07;78.20
13312;BME280;34033;48.672;9.376;2022-08-21T07:02:51;98672.03;;;18.15;78.26
13312;BME280;34033;48.672;9.376;2022-08-21T07:05:16;98675.91;;;18.24;77.76
13312;BME280;34033;48.672;9.376;2022-08-21T07:07:42;98666.53;;;18.27;77.92
13312;BME280;34033;48.672;9.376;2022-08-21T07:10:08;98667.75;;;18.26;77.75
13312;BME280;34033;48.672;9.376;2022-08-21T07:12:33;98666.28;;;18.38;78.26
13312;BME280;34033;48.672;9.376;2022-08-21T07:14:58;98659.59;;;18.48;77.95
13312;BME280;34033;48.672;9.376;2022-08-21T07:17:24;98667.84;;;18.79;77.10
13312;BME280;34033;48.672;9.376;2022-08-21T07:19:49;98674.50;;;19.04;76.01
13312;BME280;34033;48.672;9.376;2022-08-21T07:22:18;98667.59;;;19.22;74.95
13312;BME280;34033;48.672;9.376;2022-08-21T07:24:45;98665.91;;;19.24;75.05
13312;BME280;34033;48.672;9.376;2022-08-21T07:27:10;98657.22;;;19.15;74.94
13312;BME280;34033;48.672;9.376;2022-08-21T07:29:36;98648.88;;;19.24;74.95
13312;BME280;34033;48.672;9.376;2022-08-21T07:32:01;98654.06;;;19.45;74.06
13312;BME280;34033;48.672;9.376;2022-08-21T07:34:26;98650.75;;;19.47;73.60
13312;BME280;34033;48.672;9.376;2022-08-21T07:36:52;98650.44;;;19.45;73.33
13312;BME280;34033;48.672;9.376;2022-08-21T07:39:18;98651.81;;;19.37;73.10
13312;BME280;34033;48.672;9.376;2022-08-21T07:41:43;98646.41;;;19.42;73.86
13312;BME280;34033;48.672;9.376;2022-08-21T07:44:08;98642.72;;;19.45;73.94
13312;BME280;34033;48.672;9.376;2022-08-21T07:46:34;98643.31;;;19.53;74.17
13312;BME280;34033;48.672;9.376;2022-08-21T07:48:59;98640.91;;;19.68;72.96
13312;BME280;34033;48.672;9.376;2022-08-21T07:51:26;98635.69;;;19.66;72.58
13312;BME280;34033;48.672;9.376;2022-08-21T07:53:54;98648.31;;;19.78;72.95
13312;BME280;34033;48.672;9.376;2022-08-21T07:56:20;98645.81;;;19.80;71.85
13312;BME280;34033;48.672;9.376;2022-08-21T07:58:46;98643.69;;;19.84;71.56
13312;BME280;34033;48.672;9.376;2022-08-21T08:01:12;98646.22;;;19.94;71.38
13312;BME280;34033;48.672;9.376;2022-08-21T08:03:37;98642.53;;;20.10;70.84
13312;BME280;34033;48.672;9.376;2022-08-21T08:06:04;98634.06;;;20.23;70.27
13312;BME280;34033;48.672;9.376;2022-08-21T08:08:30;98639.44;;;20.33;69.53
13312;BME280;34033;48.672;9.376;2022-08-21T08:10:56;98640.13;;;20.37;68.78
13312;BME280;34033;48.672;9.376;2022-08-21T08:13:23;98639.47;;;20.59;68.61
13312;BME280;34033;48.672;9.376;2022-08-21T08:15:49;98636.28;;;20.69;67.68
13312;BME280;34033;48.672;9.376;2022-08-21T08:18:14;98636.31;;;20.82;67.32
13312;BME280;34033;48.672;9.376;2022-08-21T08:20:40;98627.09;;;20.91;65.52
13312;BME280;34033;48.672;9.376;2022-08-21T08:23:06;98632.09;;;20.87;65.49
13312;BME280;34033;48.672;9.376;2022-08-21T08:25:31;98627.09;;;20.91;65.49
13312;BME280;34033;48.672;9.376;2022-08-21T08:27:57;98620.59;;;21.03;64.56
13312;BME280;34033;48.672;9.376;2022-08-21T08:30:22;98613.22;;;21.18;63.53
13312;BME280;34033;48.672;9.376;2022-08-21T08:32:49;98619.00;;;21.27;61.26
13312;BME280;34033;48.672;9.376;2022-08-21T08:35:14;98616.13;;;21.40;62.56
13312;BME280;34033;48.672;9.376;2022-08-21T08:37:40;98599.81;;;21.53;61.63
13312;BME280;34033;48.672;9.376;2022-08-21T08:40:18;98612.84;;;21.63;61.09
13312;BME280;34033;48.672;9.376;2022-08-21T08:42:46;98597.84;;;21.62;59.92
13312;BME280;34033;48.672;9.376;2022-08-21T08:45:16;98596.25;;;21.61;59.40
13312;BME280;34033;48.672;9.376;2022-08-21T08:47:45;98599.44;;;21.63;60.47
13312;BME280;34033;48.672;9.376;2022-08-21T08:50:18;98590.31;;;21.69;60.30
13312;BME280;34033;48.672;9.376;2022-08-21T08:52:58;98584.94;;;21.71;58.77
13312;BME280;34033;48.672;9.376;2022-08-21T08:55:35;98592.91;;;21.76;58.62
13312;BME280;34033;48.672;9.376;2022-08-21T08:58:01;98594.81;;;21.79;57.64
13312;BME280;34033;48.672;9.376;2022-08-21T09:00:28;98588.84;;;21.86;57.79
13312;BME280;34033;48.672;9.376;2022-08-21T09:02:57;98588.16;;;21.94;60.20
13312;BME280;34033;48.672;9.376;2022-08-21T09:05:57;98592.72;;;22.14;59.56
13312;BME280;34033;48.672;9.376;2022-08-21T09:11:07;98576.41;;;22.36;58.11
13312;BME280;34033;48.672;9.376;2022-08-21T09:14:45;98579.16;;;22.49;58.24
13312;BME280;34033;48.672;9.376;2022-08-21T09:17:04;98571.78;;;22.60;58.05
13312;BME280;34033;48.672;9.376;2022-08-21T09:25:52;98568.09;;;23.00;57.41
13312;BME280;34033;48.672;9.376;2022-08-21T09:28:20;98568.31;;;23.14;56.97
13312;BME280;34033;48.672;9.376;2022-08-21T09:30:45;98556.75;;;23.27;56.48
13312;BME280;34033;48.672;9.376;2022-08-21T09:33:12;98561.22;;;23.37;56.05
13312;BME280;34033;48.672;9.376;2022-08-21T09:35:51;98561.06;;;23.32;54.77
13312;BME280;34033;48.672;9.376;2022-08-21T09:38:27;98561.06;;;23.32;53.64
13312;BME280;34033;48.672;9.376;2022-08-21T09:41:03;98555.81;;;23.39;54.86
13312;BME280;34033;48.672;9.376;2022-08-21T09:43:30;98556.63;;;23.40;53.15
13312;BME280;34033;48.672;9.376;2022-08-21T09:46:04;98554.22;;;23.38;53.08
13312;BME280;34033;48.672;9.376;2022-08-21T09:48:45;98549.31;;;23.39;52.38
13312;BME280;34033;48.672;9.376;2022-08-21T09:51:18;98556.97;;;23.51;52.99
13312;BME280;34033;48.672;9.376;2022-08-21T09:53:51;98547.78;;;23.65;53.89
13312;BME280;34033;48.672;9.376;2022-08-21T09:56:22;98554.44;;;23.62;50.75
13312;BME280;34033;48.672;9.376;2022-08-21T09:59:33;98550.31;;;23.81;52.78
13312;BME280;34033;48.672;9.376;2022-08-21T10:02:03;98555.38;;;23.86;52.16
13312;BME280;34033;48.672;9.376;2022-08-21T10:04:39;98544.59;;;23.90;49.32
13312;BME280;34033;48.672;9.376;2022-08-21T10:07:12;98541.41;;;23.97;50.68
13312;BME280;34033;48.672;9.376;2022-08-21T10:09:40;98535.19;;;24.08;51.47
13312;BME280;34033;48.672;9.376;2022-08-21T10:17:52;98528.25;;;24.51;49.62
13312;BME280;34033;48.672;9.376;2022-08-21T10:20:24;98524.47;;;24.45;48.13
13312;BME280;34033;48.672;9.376;2022-08-21T10:25:40;98519.13;;;24.29;48.41
13312;BME280;34033;48.672;9.376;2022-08-21T10:28:24;98520.72;;;24.30;46.06
13312;BME280;34033;48.672;9.376;2022-08-21T10:31:00;98516.88;;;24.33;44.46
13312;BME280;34033;48.672;9.376;2022-08-21T10:36:21;98519.28;;;24.67;44.37
13312;BME280;34033;48.672;9.376;2022-08-21T10:41:26;98518.59;;;25.05;45.39
13312;BME280;34033;48.672;9.376;2022-08-21T10:47:09;98513.28;;;25.37;43.96
13312;BME280;34033;48.672;9.376;2022-08-21T10:49:58;98504.75;;;25.51;44.33
13312;BME280;34033;48.672;9.376;2022-08-21T10:52:46;98506.97;;;25.56;43.57
13312;BME280;34033;48.672;9.376;2022-08-21T10:55:21;98512.31;;;25.63;43.40
13312;BME280;34033;48.672;9.376;2022-08-21T10:57:56;98503.63;;;25.72;42.68
13312;BME280;34033;48.672;9.376;2022-08-21T11:00:28;98499.78;;;25.75;43.13
13312;BME280;34033;48.672;9.376;2022-08-21T11:06:08;98493.47;;;26.01;41.74
13312;BME280;34033;48.672;9.376;2022-08-21T11:08:44;98497.22;;;26.22;41.71
13312;BME280;34033;48.672;9.376;2022-08-21T11:11:29;98487.75;;;26.30;41.15
13312;BME280;34033;48.672;9.376;2022-08-21T11:16:42;98479.22;;;26.50;41.56
13312;BME280;34033;48.672;9.376;2022-08-21T11:19:15;98469.69;;;26.59;39.04
13312;BME280;34033;48.672;9.376;2022-08-21T11:21:46;98476.38;;;26.71;40.55
13312;BME280;34033;48.672;9.376;2022-08-21T11:24:34;98477.44;;;26.88;39.45
13312;BME280;34033;48.672;9.376;2022-08-21T11:29:40;98475.03;;;27.01;38.81
13312;BME280;34033;48.672;9.376;2022-08-21T11:40:19;98457.94;;;27.32;37.21
13312;BME280;34033;48.672;9.376;2022-08-21T11:42:54;98456.44;;;27.37;37.09
13312;BME280;34033;48.672;9.376;2022-08-21T11:45:32;98460.16;;;27.43;36.92
13312;BME280;34033;48.672;9.376;2022-08-21T11:48:10;98447.66;;;27.46;37.54
13312;BME280;34033;48.672;9.376;2022-08-21T11:50:37;98452.63;;;27.46;36.57
13312;BME280;34033;48.672;9.376;2022-08-21T11:55:40;98455.47;;;27.66;36.74
13312;BME280;34033;48.672;9.376;2022-08-21T11:58:32;98454.91;;;27.62;36.65
13312;BME280;34033;48.672;9.376;2022-08-21T12:01:06;98453.22;;;27.75;36.14
13312;BME280;34033;48.672;9.376;2022-08-21T12:03:35;98450.34;;;27.75;35.89
13312;BME280;34033;48.672;9.376;2022-08-21T12:06:08;98452.09;;;27.93;35.93
13312;BME280;34033;48.672;9.376;2022-08-21T12:16:33;98448.56;;;28.41;34.59
13312;BME280;34033;48.672;9.376;2022-08-21T12:22:11;98438.50;;;28.19;34.65
13312;BME280;34033;48.672;9.376;2022-08-21T12:25:02;98438.94;;;28.12;35.36
13312;BME280;34033;48.672;9.376;2022-08-21T12:27:30;98440.19;;;28.37;35.63
13312;BME280;34033;48.672;9.376;2022-08-21T12:32:59;98430.81;;;28.79;34.54
13312;BME280;34033;48.672;9.376;2022-08-21T12:35:31;98422.06;;;29.05;33.33
13312;BME280;34033;48.672;9.376;2022-08-21T12:38:12;98422.66;;;29.26;34.41
13312;BME280;34033;48.672;9.376;2022-08-21T12:40:45;98416.13;;;29.31;32.80
13312;BME280;34033;48.672;9.376;2022-08-21T12:43:18;98414.31;;;29.33;31.66
13312;BME280;34033;48.672;9.376;2022-08-21T12:45:47;98404.06;;;29.21;31.88
13312;BME280;34033;48.672;9.376;2022-08-21T12:50:45;98408.72;;;28.59;31.82
13312;BME280;34033;48.672;9.376;2022-08-21T12:53:27;98409.38;;;28.38;33.87
13312;BME280;34033;48.672;9.376;2022-08-21T12:55:55;98404.91;;;28.37;33.29
13312;BME280;34033;48.672;9.376;2022-08-21T12:58:26;98403.94;;;28.51;33.48
13312;BME280;34033;48.672;9.376;2022-08-21T13:03:51;98394.78;;;28.95;33.18
13312;BME280;34033;48.672;9.376;2022-08-21T13:06:20;98396.84;;;28.83;32.32
13312;BME280;34033;48.672;9.376;2022-08-21T13:08:47;98402.41;;;28.50;32.03
13312;BME280;34033;48.672;9.376;2022-08-21T13:11:16;98396.22;;;28.26;33.15
13312;BME280;34033;48.672;9.376;2022-08-21T13:13:48;98394.09;;;28.63;33.07
13312;BME280;34033;48.672;9.376;2022-08-21T13:16:19;98405.25;;;28.92;32.01
13312;BME280;34033;48.672;9.376;2022-08-21T13:19:05;98398.31;;;29.21;31.60
13312;BME280;34033;48.672;9.376;2022-08-21T13:21:34;98395.28;;;29.64;31.54
13312;BME280;34033;48.672;9.376;2022-08-21T13:24:30;98384.31;;;30.07;32.21
13312;BME280;34033;48.672;9.376;2022-08-21T13:26:57;98387.19;;;30.35;31.18
13312;BME280;34033;48.672;9.376;2022-08-21T13:29:28;98389.25;;;30.67;30.93
13312;BME280;34033;48.672;9.376;2022-08-21T13:31:59;98387.91;;;30.80;29.56
13312;BME280;34033;48.672;9.376;2022-08-21T13:34:29;98386.31;;;30.79;29.56
13312;BME280;34033;48.672;9.376;2022-08-21T13:37:07;98383.13;;;30.88;29.89
13312;BME280;34033;48.672;9.376;2022-08-21T13:39:33;98382.84;;;30.97;28.85
13312;BME280;34033;48.672;9.376;2022-08-21T13:42:02;98385.34;;;30.54;29.91
13312;BME280;34033;48.672;9.376;2022-08-21T13:46:58;98374.53;;;30.71;29.26
13312;BME280;34033;48.672;9.376;2022-08-21T13:49:30;98369.72;;;30.96;30.18
13312;BME280;34033;48.672;9.376;2022-08-21T13:51:56;98373.28;;;31.24;29.47
13312;BME280;34033;48.672;9.376;2022-08-21T13:54:26;98362.59;;;31.55;29.31
13312;BME280;34033;48.672;9.376;2022-08-21T13:56:53;98368.00;;;31.75;27.25
13312;BME280;34033;48.672;9.376;2022-08-21T13:59:35;98363.13;;;31.59;26.43
13312;BME280;34033;48.672;9.376;2022-08-21T14:02:18;98364.59;;;31.71;27.46
13312;BME280;34033;48.672;9.376;2022-08-21T14:04:59;98364.19;;;31.91;26.92
13312;BME280;34033;48.672;9.376;2022-08-21T14:07:36;98364.31;;;32.04;25.65
13312;BME280;34033;48.672;9.376;2022-08-21T14:10:17;98369.31;;;32.04;25.35
13312;BME280;34033;48.672;9.376;2022-08-21T14:12:45;98370.19;;;31.63;25.11
13312;BME280;34033;48.672;9.376;2022-08-21T14:15:14;98360.22;;;31.64;25.55
13312;BME280;34033;48.672;9.376;2022-08-21T14:17:40;98364.69;;;31.60;25.61
13312;BME280;34033;48.672;9.376;2022-08-21T14:20:09;98368.88;;;31.12;26.45
13312;BME280;34033;48.672;9.376;2022-08-21T14:22:46;98368.84;;;31.18;26.56
13312;BME280;34033;48.672;9.376;2022-08-21T14:30:29;98353.47;;;31.45;26.61